Time;durP1;ratioP1;P1;durP2;ratioP2;P2;SDS_P1;SDS_P2;PMS_P1;PMS_P2;Temp;Humidity;BMP_temperature;BMP_pressure;BME280_temperature;BME280_humidity;BME280_pressure;Samples;Min_cycle;Max_cycle;Signal;HPM_P1;HPM_P2
2022/04/17 00:01:07;;;;;;;13.50;7.07;;;;;;;;;;4899921;29;20985;-65
2022/04/17 00:03:51;;;;;;;11.67;6.20;;;;;;;;;;4902701;29;20426;-64
2022/04/17 00:06:17;;;;;;;13.47;6.80;;;;;;;;;;4916940;29;20458;-64
2022/04/17 00:09:01;;;;;;;10.90;6.13;;;;;;;;;;4916840;29;20852;-64
2022/04/17 00:11:28;;;;;;;14.37;7.23;;;;;;;;;;4899850;29;20439;-64
2022/04/17 00:13:55;;;;;;;12.57;6.53;;;;;;;;;;4916750;29;20428;-64
2022/04/17 00:16:21;;;;;;;10.97;6.40;;;;;;;;;;4915301;29;20482;-65
2022/04/17 00:18:48;;;;;;;12.00;7.47;;;;;;;;;;4916637;29;20443;-64
2022/04/17 00:21:15;;;;;;;12.00;7.97;;;;;;;;;;4915798;29;20469;-64
2022/04/17 00:23:44;;;;;;;16.67;9.17;;;;;;;;;;4916569;29;20803;-64
2022/04/17 00:26:11;;;;;;;14.13;8.07;;;;;;;;;;4916475;29;20435;-64
2022/04/17 00:28:39;;;;;;;13.03;7.50;;;;;;;;;;4916337;29;20518;-64
2022/04/17 00:31:05;;;;;;;11.43;7.27;;;;;;;;;;4916846;29;20427;-64
2022/04/17 00:33:32;;;;;;;12.80;7.80;;;;;;;;;;4915208;29;20482;-64
2022/04/17 00:35:59;;;;;;;13.27;8.20;;;;;;;;;;4916297;29;20834;-64
2022/04/17 00:38:25;;;;;;;14.70;8.70;;;;;;;;;;4916247;29;20847;-64
2022/04/17 00:40:54;;;;;;;14.67;8.57;;;;;;;;;;4916122;29;20432;-64
2022/04/17 00:43:22;;;;;;;25.17;12.20;;;;;;;;;;4916092;29;20494;-65
2022/04/17 00:45:48;;;;;;;21.60;10.70;;;;;;;;;;4916186;29;20432;-66
2022/04/17 00:48:15;;;;;;;21.40;10.07;;;;;;;;;;4915827;29;20471;-65
2022/04/17 00:50:42;;;;;;;14.57;8.37;;;;;;;;;;4915236;29;20985;-64
2022/04/17 00:53:11;;;;;;;15.80;8.07;;;;;;;;;;4899612;29;20439;-65
2022/04/17 00:55:38;;;;;;;15.43;8.93;;;;;;;;;;4915863;29;20467;-66
2022/04/17 00:58:22;;;;;;;17.00;9.27;;;;;;;;;;4915725;29;20416;-65
2022/04/17 01:00:49;;;;;;;17.90;10.03;;;;;;;;;;4915933;29;20447;-64
2022/04/17 01:03:17;;;;;;;19.67;10.90;;;;;;;;;;4915648;29;20432;-65
2022/04/17 01:05:44;;;;;;;20.73;11.63;;;;;;;;;;4899140;29;20443;-67
2022/04/17 01:08:11;;;;;;;20.73;11.30;;;;;;;;;;4915676;29;20855;-67
2022/04/17 01:10:55;;;;;;;18.87;10.37;;;;;;;;;;4901489;29;20499;-65
2022/04/17 01:13:22;;;;;;;17.20;8.90;;;;;;;;;;4914419;29;20452;-66
2022/04/17 01:15:49;;;;;;;19.27;10.47;;;;;;;;;;4915792;29;20471;-66
2022/04/17 01:18:16;;;;;;;18.47;10.43;;;;;;;;;;4915318;29;20534;-65
2022/04/17 01:20:43;;;;;;;14.53;9.27;;;;;;;;;;4915544;29;20530;-66
2022/04/17 01:29:15;;;;;;;18.57;9.27;;;;;;;;;;4896927;29;20460;-65
2022/04/17 01:31:42;;;;;;;16.00;8.33;;;;;;;;;;4898229;29;20477;-64
2022/04/17 01:34:26;;;;;;;15.13;8.23;;;;;;;;;;4912285;29;20550;-64
2022/04/17 01:36:52;;;;;;;17.70;9.07;;;;;;;;;;4912761;29;20483;-65
2022/04/17 01:39:19;;;;;;;20.43;10.67;;;;;;;;;;4912320;29;21222;-64
2022/04/17 01:41:46;;;;;;;19.53;10.97;;;;;;;;;;4912611;29;20443;-64
2022/04/17 01:44:13;;;;;;;16.60;9.63;;;;;;;;;;4912769;29;20970;-65
2022/04/17 01:46:40;;;;;;;18.33;9.50;;;;;;;;;;4912519;29;20431;-64
2022/04/17 01:49:07;;;;;;;17.67;9.47;;;;;;;;;;4912100;29;20432;-65
2022/04/17 01:51:39;;;;;;;16.37;9.43;;;;;;;;;;4911619;29;20959;-65
2022/04/17 01:54:06;;;;;;;17.33;9.40;;;;;;;;;;4912266;29;20443;-65
2022/04/17 01:56:34;;;;;;;22.60;11.47;;;;;;;;;;4912365;29;20479;-64
2022/04/17 01:59:01;;;;;;;22.60;11.10;;;;;;;;;;4912740;29;20446;-65
2022/04/17 02:01:27;;;;;;;22.83;11.47;;;;;;;;;;4912117;29;20932;-64
2022/04/17 02:03:54;;;;;;;24.73;11.23;;;;;;;;;;4912163;29;20435;-64
2022/04/17 02:06:21;;;;;;;19.90;10.40;;;;;;;;;;4912171;29;20471;-65
2022/04/17 02:08:48;;;;;;;22.00;10.97;;;;;;;;;;4912314;29;20439;-64
2022/04/17 02:11:14;;;;;;;21.33;10.70;;;;;;;;;;4912529;29;20446;-66
2022/04/17 02:13:42;;;;;;;21.33;10.80;;;;;;;;;;4894970;29;20884;-65
2022/04/17 02:16:26;;;;;;;23.13;10.47;;;;;;;;;;4912005;29;20466;-65
2022/04/17 02:18:53;;;;;;;23.17;10.10;;;;;;;;;;4911882;29;20466;-65
2022/04/17 02:21:20;;;;;;;20.03;10.23;;;;;;;;;;4912047;29;20447;-65
2022/04/17 02:23:47;;;;;;;17.80;9.53;;;;;;;;;;4912107;29;20458;-65
2022/04/17 02:26:14;;;;;;;18.10;8.77;;;;;;;;;;4912533;29;20495;-65
2022/04/17 02:28:58;;;;;;;17.63;9.53;;;;;;;;;;4912393;29;20430;-65
2022/04/17 02:31:25;;;;;;;14.43;8.37;;;;;;;;;;4911904;29;20436;-66
2022/04/17 02:34:09;;;;;;;15.43;8.53;;;;;;;;;;4910647;29;21014;-65
2022/04/17 02:36:36;;;;;;;14.03;7.80;;;;;;;;;;4911982;29;20475;-65
2022/04/17 02:39:02;;;;;;;16.63;7.70;;;;;;;;;;4911701;29;20440;-65
2022/04/17 02:41:29;;;;;;;14.70;8.03;;;;;;;;;;4911780;29;20439;-65
2022/04/17 02:43:56;;;;;;;15.67;8.33;;;;;;;;;;4914454;29;20514;-65
2022/04/17 02:49:08;;;;;;;11.77;6.00;;;;;;;;;;4914811;29;20456;-66
2022/04/17 02:51:52;;;;;;;10.13;5.37;;;;;;;;;;4916101;29;20534;-65
2022/04/17 02:54:18;;;;;;;10.63;5.53;;;;;;;;;;4898798;29;20467;-65
2022/04/17 02:56:46;;;;;;;13.80;6.17;;;;;;;;;;4915590;29;20514;-65
2022/04/17 02:59:12;;;;;;;12.23;7.13;;;;;;;;;;4915656;29;20435;-65
2022/04/17 03:07:10;;;;;;;13.73;7.90;;;;;;;;;;4915518;29;20440;-65
2022/04/17 03:09:56;;;;;;;14.67;7.70;;;;;;;;;;4901349;29;20430;-66
2022/04/17 03:12:23;;;;;;;13.07;7.30;;;;;;;;;;4914371;29;20455;-65
2022/04/17 03:14:50;;;;;;;16.73;7.73;;;;;;;;;;4898312;29;20511;-65
2022/04/17 03:17:16;;;;;;;11.67;6.83;;;;;;;;;;4915454;29;20475;-65
2022/04/17 03:19:43;;;;;;;17.90;7.27;;;;;;;;;;4915157;29;20440;-66
2022/04/17 03:22:10;;;;;;;15.27;7.30;;;;;;;;;;4915094;29;20428;-65
2022/04/17 03:24:37;;;;;;;14.03;7.40;;;;;;;;;;4914970;29;20519;-66
2022/04/17 03:27:03;;;;;;;14.30;7.90;;;;;;;;;;4914891;29;20523;-66
2022/04/17 03:29:30;;;;;;;14.13;6.57;;;;;;;;;;4914372;29;20496;-66
2022/04/17 03:31:57;;;;;;;13.47;7.17;;;;;;;;;;4915234;29;20443;-66
2022/04/17 03:34:24;;;;;;;14.10;7.70;;;;;;;;;;4914463;29;20460;-65
2022/04/17 03:36:50;;;;;;;14.00;7.17;;;;;;;;;;4915033;29;20581;-65
2022/04/17 03:39:17;;;;;;;11.93;7.43;;;;;;;;;;4914722;29;20471;-66
2022/04/17 03:41:44;;;;;;;12.70;7.50;;;;;;;;;;4915071;29;21199;-65
2022/04/17 03:44:28;;;;;;;13.90;8.43;;;;;;;;;;4897871;29;20943;-65
2022/04/17 03:46:54;;;;;;;13.60;7.57;;;;;;;;;;4909846;29;20975;-66
2022/04/17 03:49:21;;;;;;;17.50;8.13;;;;;;;;;;4895491;29;20449;-66
2022/04/17 03:51:48;;;;;;;13.97;7.43;;;;;;;;;;4895801;29;20528;-66
2022/04/17 03:54:14;;;;;;;18.67;7.70;;;;;;;;;;4878435;29;20445;-66
2022/04/17 03:56:42;;;;;;;15.03;7.63;;;;;;;;;;4895066;29;20479;-66
2022/04/17 03:59:09;;;;;;;13.53;7.23;;;;;;;;;;4895901;29;20445;-66
2022/04/17 04:01:36;;;;;;;13.67;6.77;;;;;;;;;;4895920;29;20441;-65
2022/04/17 04:04:02;;;;;;;12.67;6.53;;;;;;;;;;4898135;29;20461;-66
2022/04/17 04:06:29;;;;;;;10.67;6.40;;;;;;;;;;4914313;29;20440;-65
2022/04/17 04:08:56;;;;;;;9.83;5.80;;;;;;;;;;4914488;29;21002;-66
2022/04/17 04:11:22;;;;;;;10.63;5.40;;;;;;;;;;4914077;29;20946;-66
2022/04/17 04:13:49;;;;;;;9.27;5.80;;;;;;;;;;4914856;29;20499;-66
2022/04/17 04:16:16;;;;;;;10.37;5.60;;;;;;;;;;4914198;29;20487;-66
2022/04/17 04:18:42;;;;;;;9.63;5.63;;;;;;;;;;4914178;29;20450;-66
2022/04/17 04:21:09;;;;;;;9.03;5.27;;;;;;;;;;4897207;29;20979;-66
2022/04/17 04:23:36;;;;;;;9.03;5.53;;;;;;;;;;4914307;29;20847;-66
2022/04/17 04:26:03;;;;;;;10.73;4.93;;;;;;;;;;4913111;29;20546;-66
2022/04/17 04:28:33;;;;;;;9.37;5.20;;;;;;;;;;4914128;29;20436;-66
2022/04/17 04:31:03;;;;;;;9.27;5.43;;;;;;;;;;4913890;29;20444;-66
2022/04/17 04:33:31;;;;;;;7.67;4.87;;;;;;;;;;4913713;29;20469;-66
2022/04/17 04:35:59;;;;;;;9.70;5.17;;;;;;;;;;4913811;29;20897;-66
2022/04/17 04:38:26;;;;;;;8.37;5.03;;;;;;;;;;4913629;29;20943;-66
2022/04/17 04:40:53;;;;;;;9.13;4.87;;;;;;;;;;4913893;29;20451;-66
2022/04/17 04:43:20;;;;;;;9.17;5.30;;;;;;;;;;4912862;29;20429;-66
2022/04/17 04:51:23;;;;;;;10.37;6.20;;;;;;;;;;4913749;29;20852;-66
2022/04/17 04:53:50;;;;;;;9.40;5.40;;;;;;;;;;4913782;29;20459;-66
2022/04/17 04:56:17;;;;;;;14.03;7.50;;;;;;;;;;4913700;29;20474;-66
2022/04/17 04:58:44;;;;;;;12.47;7.03;;;;;;;;;;4913438;29;20456;-66
2022/04/17 05:01:28;;;;;;;11.90;6.97;;;;;;;;;;4912387;29;20443;-66
2022/04/17 05:03:55;;;;;;;13.30;8.40;;;;;;;;;;4913675;29;20432;-66
2022/04/17 05:06:22;;;;;;;12.27;8.33;;;;;;;;;;4912880;29;20523;-66
2022/04/17 05:08:48;;;;;;;13.30;8.80;;;;;;;;;;4913403;29;20435;-66
2022/04/17 05:11:15;;;;;;;16.57;9.53;;;;;;;;;;4909372;29;20539;-67
2022/04/17 05:13:43;;;;;;;16.10;10.40;;;;;;;;;;4910730;29;21291;-68
2022/04/17 05:16:10;;;;;;;15.03;9.80;;;;;;;;;;4913257;29;20481;-66
2022/04/17 05:18:37;;;;;;;15.00;9.40;;;;;;;;;;4918105;29;20445;-68
2022/04/17 05:21:05;;;;;;;13.67;8.50;;;;;;;;;;4918682;29;20802;-66
2022/04/17 05:23:32;;;;;;;13.30;8.30;;;;;;;;;;4919860;29;20593;-65
2022/04/17 05:26:00;;;;;;;13.53;8.63;;;;;;;;;;4919126;29;20509;-65
2022/04/17 05:28:44;;;;;;;13.67;8.33;;;;;;;;;;4912424;29;20435;-65
2022/04/17 05:31:11;;;;;;;13.70;8.43;;;;;;;;;;4913709;29;20443;-67
2022/04/17 05:33:38;;;;;;;13.17;8.23;;;;;;;;;;4908999;29;20472;-64
2022/04/17 05:36:05;;;;;;;13.33;8.67;;;;;;;;;;4910622;29;20541;-66
2022/04/17 05:38:32;;;;;;;17.83;9.20;;;;;;;;;;4911730;29;20840;-66
2022/04/17 05:40:59;;;;;;;17.57;8.90;;;;;;;;;;4897342;29;20600;-66
2022/04/17 05:43:26;;;;;;;13.70;8.60;;;;;;;;;;4877226;29;20452;-65
2022/04/17 05:45:53;;;;;;;16.37;8.83;;;;;;;;;;4906135;29;20530;-65
2022/04/17 05:48:20;;;;;;;13.77;8.13;;;;;;;;;;4912775;29;20195;-65
2022/04/17 05:50:49;;;;;;;14.50;7.70;;;;;;;;;;4912516;29;20247;-66
2022/04/17 05:53:17;;;;;;;13.80;8.07;;;;;;;;;;4896666;29;20435;-67
2022/04/17 05:55:43;;;;;;;11.93;7.27;;;;;;;;;;4895866;29;20198;-65
2022/04/17 05:58:10;;;;;;;12.87;6.13;;;;;;;;;;4911802;29;20494;-66
2022/04/17 06:00:39;;;;;;;9.07;4.90;;;;;;;;;;4911565;29;20187;-66
2022/04/17 06:03:06;;;;;;;8.10;4.00;;;;;;;;;;4896394;29;20188;-65
2022/04/17 06:05:33;;;;;;;7.77;4.27;;;;;;;;;;4904455;29;20233;-66
2022/04/17 06:07:59;;;;;;;7.57;3.40;;;;;;;;;;4893835;29;20921;-66
2022/04/17 06:10:26;;;;;;;7.80;4.00;;;;;;;;;;4910726;29;20258;-66
2022/04/17 06:12:53;;;;;;;5.23;3.43;;;;;;;;;;4911613;29;20199;-65
2022/04/17 06:15:19;;;;;;;6.37;3.20;;;;;;;;;;4909652;29;20209;-66
2022/04/17 06:17:48;;;;;;;4.10;2.23;;;;;;;;;;4911374;29;20223;-65
2022/04/17 06:20:15;;;;;;;4.93;3.07;;;;;;;;;;4912825;29;20670;-65
2022/04/17 06:22:41;;;;;;;3.47;1.70;;;;;;;;;;4911938;29;20209;-65
2022/04/17 06:25:09;;;;;;;3.10;1.50;;;;;;;;;;4911763;29;20532;-66
2022/04/17 06:27:36;;;;;;;3.23;2.00;;;;;;;;;;4893411;29;20710;-66
2022/04/17 06:30:07;;;;;;;3.43;1.90;;;;;;;;;;4876618;29;20196;-66
2022/04/17 06:32:34;;;;;;;2.67;1.57;;;;;;;;;;4894245;29;20577;-66
2022/04/17 06:35:01;;;;;;;2.50;1.63;;;;;;;;;;4893129;29;20267;-66
2022/04/17 06:37:28;;;;;;;2.80;1.90;;;;;;;;;;4893863;29;20789;-66
2022/04/17 06:39:57;;;;;;;3.30;1.93;;;;;;;;;;4899882;29;20513;-67
2022/04/17 06:42:24;;;;;;;2.87;2.20;;;;;;;;;;4860863;29;20983;-65
2022/04/17 06:44:51;;;;;;;2.60;1.43;;;;;;;;;;4892815;29;20195;-66
2022/04/17 06:47:18;;;;;;;4.83;1.63;;;;;;;;;;4911370;29;20222;-66
2022/04/17 06:49:46;;;;;;;2.23;1.50;;;;;;;;;;4910042;29;20195;-66
2022/04/17 06:52:12;;;;;;;3.50;1.90;;;;;;;;;;4912297;29;20214;-66
2022/04/17 06:54:39;;;;;;;2.63;1.60;;;;;;;;;;4911886;29;20239;-66
2022/04/17 06:57:06;;;;;;;2.40;1.70;;;;;;;;;;4910888;29;20314;-66
2022/04/17 06:59:33;;;;;;;3.30;1.73;;;;;;;;;;4907029;29;20218;-67
2022/04/17 07:01:59;;;;;;;3.33;1.90;;;;;;;;;;4893466;29;20208;-67
2022/04/17 07:04:28;;;;;;;3.67;1.83;;;;;;;;;;4893042;29;20226;-66
2022/04/17 07:06:55;;;;;;;7.83;5.60;;;;;;;;;;4893193;29;20573;-67
2022/04/17 07:09:21;;;;;;;3.10;1.80;;;;;;;;;;4907970;29;20192;-66
2022/04/17 07:11:48;;;;;;;4.23;2.33;;;;;;;;;;4895469;29;20200;-67
2022/04/17 07:14:15;;;;;;;3.43;1.70;;;;;;;;;;4908179;29;20195;-67
2022/04/17 07:16:43;;;;;;;4.10;2.13;;;;;;;;;;4910973;29;20200;-68
2022/04/17 07:19:09;;;;;;;2.87;2.03;;;;;;;;;;4910058;29;20195;-67
2022/04/17 07:21:37;;;;;;;2.07;1.40;;;;;;;;;;4896059;29;20841;-67
2022/04/17 07:24:05;;;;;;;1.53;1.13;;;;;;;;;;4893572;29;20198;-68
2022/04/17 07:26:32;;;;;;;2.30;1.43;;;;;;;;;;4902746;29;20196;-68
2022/04/17 07:28:59;;;;;;;1.50;1.20;;;;;;;;;;4912623;29;20223;-68
2022/04/17 07:31:43;;;;;;;1.90;1.10;;;;;;;;;;4914291;29;20284;-68
2022/04/17 07:34:09;;;;;;;1.83;0.90;;;;;;;;;;4914558;29;20602;-68
2022/04/17 07:36:54;;;;;;;1.77;1.10;;;;;;;;;;4896398;29;20203;-68
2022/04/17 07:39:22;;;;;;;1.23;0.77;;;;;;;;;;4904353;29;20188;-68
2022/04/17 07:42:07;;;;;;;0.73;0.63;;;;;;;;;;4914769;29;20679;-68
2022/04/17 07:44:35;;;;;;;1.03;0.50;;;;;;;;;;4914985;29;20195;-68
2022/04/17 07:47:02;;;;;;;1.10;0.80;;;;;;;;;;4914976;29;20220;-68
2022/04/17 07:49:34;;;;;;;1.33;0.80;;;;;;;;;;4910015;29;20184;-68
2022/04/17 07:52:01;;;;;;;0.87;0.67;;;;;;;;;;4914186;29;20234;-68
2022/04/17 07:54:28;;;;;;;2.13;0.90;;;;;;;;;;4913062;29;20267;-68
2022/04/17 07:56:56;;;;;;;1.80;0.80;;;;;;;;;;4896481;29;20208;-68
2022/04/17 07:59:25;;;;;;;1.10;0.67;;;;;;;;;;4897044;29;20197;-68
2022/04/17 08:02:01;;;;;;;0.80;0.80;;;;;;;;;;4896184;29;20659;-68
2022/04/17 08:04:28;;;;;;;2.00;0.80;;;;;;;;;;4914548;29;20191;-67
2022/04/17 08:06:54;;;;;;;1.83;0.70;;;;;;;;;;4914632;29;20192;-68
2022/04/17 08:09:21;;;;;;;0.73;0.70;;;;;;;;;;4913660;29;20200;-68
2022/04/17 08:11:51;;;;;;;1.57;1.03;;;;;;;;;;4906081;29;20236;-68
2022/04/17 08:14:18;;;;;;;2.30;0.83;;;;;;;;;;4895890;29;20292;-68
2022/04/17 08:16:45;;;;;;;2.17;0.97;;;;;;;;;;4895404;29;20188;-68
2022/04/17 08:19:12;;;;;;;0.83;0.67;;;;;;;;;;4910441;29;20199;-67
2022/04/17 08:21:40;;;;;;;0.40;0.37;;;;;;;;;;4886986;29;20235;-67
2022/04/17 08:24:07;;;;;;;1.77;0.60;;;;;;;;;;4910307;29;20203;-67
2022/04/17 08:26:33;;;;;;;1.10;0.40;;;;;;;;;;4908748;29;20196;-67
2022/04/17 08:29:00;;;;;;;0.40;0.40;;;;;;;;;;4878843;29;20196;-67
2022/04/17 08:31:28;;;;;;;0.70;0.37;;;;;;;;;;4908101;29;20271;-67
2022/04/17 08:33:55;;;;;;;1.00;0.40;;;;;;;;;;4910346;29;20228;-66
2022/04/17 08:36:22;;;;;;;0.73;0.40;;;;;;;;;;4904053;29;20203;-67
2022/04/17 08:38:49;;;;;;;2.80;0.40;;;;;;;;;;4906409;29;20219;-68
2022/04/17 08:41:16;;;;;;;2.10;0.43;;;;;;;;;;4899754;29;20597;-67
2022/04/17 08:43:44;;;;;;;1.03;0.30;;;;;;;;;;4885273;29;20196;-67
2022/04/17 08:46:12;;;;;;;0.63;0.40;;;;;;;;;;4886731;29;20184;-67
2022/04/17 08:48:39;;;;;;;1.57;0.40;;;;;;;;;;4905149;29;20255;-67
2022/04/17 08:51:05;;;;;;;1.93;0.40;;;;;;;;;;4905659;29;20199;-67
2022/04/17 08:53:34;;;;;;;1.10;0.40;;;;;;;;;;4896690;29;20202;-68
2022/04/17 08:56:00;;;;;;;0.47;0.40;;;;;;;;;;4896936;29;20219;-67
2022/04/17 08:58:27;;;;;;;1.67;0.60;;;;;;;;;;4909385;29;20808;-67
2022/04/17 09:00:54;;;;;;;0.67;0.50;;;;;;;;;;4896831;29;20192;-65
2022/04/17 09:03:38;;;;;;;2.80;0.60;;;;;;;;;;4913364;29;20194;-66
2022/04/17 09:06:04;;;;;;;1.03;0.40;;;;;;;;;;4913319;29;20655;-67
2022/04/17 09:08:36;;;;;;;0.97;0.40;;;;;;;;;;4913435;29;20200;-67
2022/04/17 09:11:07;;;;;;;1.50;0.43;;;;;;;;;;4896892;29;20206;-66
2022/04/17 09:13:34;;;;;;;0.30;0.30;;;;;;;;;;4913160;29;20208;-67
2022/04/17 09:16:01;;;;;;;0.80;0.40;;;;;;;;;;4913181;29;20274;-67
2022/04/17 09:18:29;;;;;;;1.10;0.43;;;;;;;;;;4912077;29;20322;-68
2022/04/17 09:20:56;;;;;;;1.50;0.60;;;;;;;;;;4913393;29;20194;-67
2022/04/17 09:23:36;;;;;;;1.17;0.60;;;;;;;;;;4913190;29;20191;-67
2022/04/17 09:26:07;;;;;;;2.03;0.50;;;;;;;;;;4913363;29;20259;-67
2022/04/17 09:28:34;;;;;;;0.80;0.40;;;;;;;;;;4913065;29;20196;-67
2022/04/17 09:31:01;;;;;;;0.50;0.40;;;;;;;;;;4912913;29;20191;-67
2022/04/17 09:33:49;;;;;;;1.53;0.40;;;;;;;;;;4912509;29;20227;-67
2022/04/17 09:36:16;;;;;;;0.50;0.20;;;;;;;;;;4913103;29;20201;-68
2022/04/17 09:39:14;;;;;;;1.53;0.60;;;;;;;;;;4898436;29;20292;-68
2022/04/17 09:41:56;;;;;;;0.67;0.37;;;;;;;;;;4911547;29;20195;-67
2022/04/17 09:44:47;;;;;;;0.60;0.50;;;;;;;;;;4912847;29;20206;-67
2022/04/17 09:47:16;;;;;;;0.30;0.30;;;;;;;;;;4913201;29;20203;-68
2022/04/17 09:49:52;;;;;;;0.50;0.47;;;;;;;;;;4912282;29;20715;-67
2022/04/17 09:52:19;;;;;;;0.60;0.43;;;;;;;;;;4912726;29;20922;-67
2022/04/17 09:54:47;;;;;;;0.70;0.40;;;;;;;;;;4912800;29;20566;-68
2022/04/17 09:57:30;;;;;;;0.80;0.47;;;;;;;;;;4912495;29;20282;-67
2022/04/17 09:59:57;;;;;;;0.60;0.30;;;;;;;;;;4912817;29;20251;-67
2022/04/17 10:02:27;;;;;;;0.80;0.30;;;;;;;;;;4895281;29;20278;-68
2022/04/17 10:04:54;;;;;;;0.57;0.50;;;;;;;;;;4912690;29;20742;-67
2022/04/17 10:07:24;;;;;;;1.10;0.50;;;;;;;;;;4912268;29;20194;-67
2022/04/17 10:09:51;;;;;;;0.70;0.40;;;;;;;;;;4912490;29;20192;-67
2022/04/17 10:12:21;;;;;;;1.40;0.63;;;;;;;;;;4895521;29;20191;-67
2022/04/17 10:15:06;;;;;;;0.60;0.20;;;;;;;;;;4912540;29;20307;-67
2022/04/17 10:17:34;;;;;;;0.67;0.50;;;;;;;;;;4912460;29;20212;-67
2022/04/17 10:20:18;;;;;;;0.33;0.30;;;;;;;;;;4912552;29;20183;-67
2022/04/17 10:22:48;;;;;;;0.50;0.40;;;;;;;;;;4911374;29;20274;-67
2022/04/17 10:25:15;;;;;;;0.87;0.50;;;;;;;;;;4896058;29;20198;-67
2022/04/17 10:27:43;;;;;;;0.50;0.50;;;;;;;;;;4912102;29;20196;-67
2022/04/17 10:30:15;;;;;;;0.97;0.40;;;;;;;;;;4895894;29;20665;-66
2022/04/17 10:32:41;;;;;;;0.80;0.50;;;;;;;;;;4895332;29;20223;-67
2022/04/17 10:35:26;;;;;;;1.47;0.50;;;;;;;;;;4912203;29;20231;-67
2022/04/17 10:38:13;;;;;;;1.23;0.50;;;;;;;;;;4897809;29;20195;-67
2022/04/17 10:40:40;;;;;;;1.20;0.57;;;;;;;;;;4895206;29;20215;-67
2022/04/17 10:43:07;;;;;;;0.70;0.60;;;;;;;;;;4912659;29;20611;-69
2022/04/17 10:45:47;;;;;;;1.23;0.40;;;;;;;;;;4912229;29;20622;-69
2022/04/17 10:48:17;;;;;;;0.73;0.43;;;;;;;;;;4895510;29;20195;-67
2022/04/17 10:50:50;;;;;;;1.80;0.60;;;;;;;;;;4892032;29;20693;-68
2022/04/17 10:53:27;;;;;;;0.87;0.60;;;;;;;;;;4912291;29;20207;-68
2022/04/17 10:56:04;;;;;;;1.17;0.50;;;;;;;;;;4911423;29;20588;-67
2022/04/17 10:58:37;;;;;;;1.13;0.60;;;;;;;;;;4911677;29;20227;-67
2022/04/17 11:01:04;;;;;;;1.07;0.40;;;;;;;;;;4895119;29;20206;-67
2022/04/17 11:03:33;;;;;;;2.37;0.43;;;;;;;;;;4911867;29;20206;-67
2022/04/17 11:06:20;;;;;;;0.77;0.50;;;;;;;;;;4898912;29;21049;-67
2022/04/17 11:08:56;;;;;;;1.27;0.50;;;;;;;;;;4915760;29;20203;-67
2022/04/17 11:11:33;;;;;;;1.17;0.47;;;;;;;;;;4914509;29;20200;-67
2022/04/17 11:14:06;;;;;;;0.90;0.40;;;;;;;;;;4899112;29;20206;-67
2022/04/17 11:16:38;;;;;;;0.50;0.40;;;;;;;;;;4915608;29;20286;-67
2022/04/17 11:19:08;;;;;;;0.93;0.50;;;;;;;;;;4914953;29;20223;-67
2022/04/17 11:21:50;;;;;;;1.23;0.73;;;;;;;;;;4898992;29;20195;-67
2022/04/17 11:24:17;;;;;;;1.67;0.53;;;;;;;;;;4915394;29;20194;-67
2022/04/17 11:26:52;;;;;;;0.77;0.60;;;;;;;;;;4914927;29;20282;-67
2022/04/17 11:29:37;;;;;;;1.63;0.90;;;;;;;;;;4914410;29;20184;-67
2022/04/17 11:32:16;;;;;;;0.77;0.60;;;;;;;;;;4915391;29;20198;-67
2022/04/17 11:34:47;;;;;;;1.00;0.60;;;;;;;;;;4897577;29;20234;-67
2022/04/17 11:37:17;;;;;;;2.90;0.70;;;;;;;;;;4915197;29;20251;-67
2022/04/17 11:39:44;;;;;;;1.67;0.80;;;;;;;;;;4914647;29;20222;-66
2022/04/17 11:42:11;;;;;;;1.67;0.70;;;;;;;;;;4898151;29;20693;-67
2022/04/17 11:44:41;;;;;;;2.17;0.60;;;;;;;;;;4915099;29;20195;-67
2022/04/17 11:47:10;;;;;;;1.33;0.70;;;;;;;;;;4914987;29;20199;-67
2022/04/17 11:49:40;;;;;;;0.97;0.40;;;;;;;;;;4914725;29;20196;-68
2022/04/17 11:52:10;;;;;;;1.23;0.60;;;;;;;;;;4898431;29;20192;-67
2022/04/17 11:54:40;;;;;;;1.43;0.70;;;;;;;;;;4913649;29;20310;-67
2022/04/17 11:57:07;;;;;;;1.60;0.70;;;;;;;;;;4914895;29;20191;-67
2022/04/17 11:59:46;;;;;;;1.20;0.70;;;;;;;;;;4914751;29;20211;-67
2022/04/17 12:02:17;;;;;;;1.33;0.80;;;;;;;;;;4915144;29;20222;-68
2022/04/17 12:04:44;;;;;;;0.80;0.67;;;;;;;;;;4914193;29;20191;-67
2022/04/17 12:07:11;;;;;;;0.80;0.60;;;;;;;;;;4914766;29;20302;-67
2022/04/17 12:09:38;;;;;;;2.03;0.73;;;;;;;;;;4914662;29;20199;-67
2022/04/17 12:12:11;;;;;;;1.27;0.70;;;;;;;;;;4914382;29;20192;-67
2022/04/17 12:14:38;;;;;;;1.07;0.93;;;;;;;;;;4914336;29;20267;-68
2022/04/17 12:17:10;;;;;;;1.00;0.60;;;;;;;;;;4912809;29;20198;-67
2022/04/17 12:19:37;;;;;;;0.60;0.50;;;;;;;;;;4914180;29;20306;-67
2022/04/17 12:22:22;;;;;;;1.20;0.70;;;;;;;;;;4900124;29;20183;-67
2022/04/17 12:24:49;;;;;;;0.70;0.50;;;;;;;;;;4897795;29;20187;-67
2022/04/17 12:27:19;;;;;;;1.33;0.70;;;;;;;;;;4914232;29;20203;-67
2022/04/17 12:29:47;;;;;;;0.80;0.60;;;;;;;;;;4914332;29;20198;-68
2022/04/17 12:32:17;;;;;;;0.40;0.30;;;;;;;;;;4914644;29;20209;-68
2022/04/17 12:34:45;;;;;;;1.47;0.60;;;;;;;;;;4913130;29;20227;-67
2022/04/17 12:37:24;;;;;;;1.37;0.53;;;;;;;;;;4914116;29;20192;-67
2022/04/17 12:39:50;;;;;;;1.00;0.60;;;;;;;;;;4914101;29;20223;-68
2022/04/17 12:42:17;;;;;;;1.20;0.60;;;;;;;;;;4914133;29;20192;-67
2022/04/17 12:44:46;;;;;;;2.10;0.40;;;;;;;;;;4913936;29;20674;-67
2022/04/17 12:47:14;;;;;;;0.87;0.50;;;;;;;;;;4914319;29;20195;-68
2022/04/17 12:49:41;;;;;;;1.10;0.60;;;;;;;;;;4913509;29;20187;-67
2022/04/17 12:52:07;;;;;;;1.00;0.70;;;;;;;;;;4913496;29;20191;-67
2022/04/17 12:54:35;;;;;;;1.47;0.57;;;;;;;;;;4914035;29;20214;-67
2022/04/17 12:57:03;;;;;;;0.90;0.50;;;;;;;;;;4913409;29;20303;-67
2022/04/17 12:59:45;;;;;;;1.10;0.43;;;;;;;;;;4896344;29;20223;-67
2022/04/17 13:02:13;;;;;;;1.30;0.63;;;;;;;;;;4913905;29;20199;-67
2022/04/17 13:04:43;;;;;;;0.77;0.50;;;;;;;;;;4913633;29;20191;-68
2022/04/17 13:07:11;;;;;;;1.27;0.70;;;;;;;;;;4913313;29;20203;-67
2022/04/17 13:09:38;;;;;;;2.30;0.70;;;;;;;;;;4913623;29;20184;-67
2022/04/17 13:12:05;;;;;;;0.80;0.60;;;;;;;;;;4910436;29;20214;-67
2022/04/17 13:14:33;;;;;;;0.77;0.60;;;;;;;;;;4912757;29;20203;-67
2022/04/17 13:17:00;;;;;;;0.70;0.50;;;;;;;;;;4910659;29;20208;-67
2022/04/17 13:19:28;;;;;;;1.10;0.60;;;;;;;;;;4913117;29;20223;-67
2022/04/17 13:21:55;;;;;;;1.20;0.87;;;;;;;;;;4913316;29;20555;-67
2022/04/17 13:24:41;;;;;;;1.03;0.60;;;;;;;;;;4913368;29;20191;-66
2022/04/17 13:27:08;;;;;;;1.53;0.70;;;;;;;;;;4912915;29;20198;-67
2022/04/17 13:29:35;;;;;;;0.50;0.50;;;;;;;;;;4913322;29;20195;-67
2022/04/17 13:32:03;;;;;;;0.80;0.70;;;;;;;;;;4913047;29;20225;-67
2022/04/17 13:34:33;;;;;;;1.00;0.60;;;;;;;;;;4911837;29;20271;-67
2022/04/17 13:39:45;;;;;;;1.23;0.60;;;;;;;;;;4912830;29;20272;-65
2022/04/17 13:42:11;;;;;;;1.73;0.60;;;;;;;;;;4912843;29;20215;-66
2022/04/17 13:44:38;;;;;;;3.63;1.40;;;;;;;;;;4913179;29;20284;-66
2022/04/17 13:47:06;;;;;;;1.23;0.90;;;;;;;;;;4913055;29;20662;-66
2022/04/17 13:49:33;;;;;;;1.00;0.60;;;;;;;;;;4912575;29;20278;-66
2022/04/17 13:51:59;;;;;;;2.03;0.57;;;;;;;;;;4912552;29;20199;-66
2022/04/17 13:54:26;;;;;;;1.33;0.70;;;;;;;;;;4912846;29;20319;-66
2022/04/17 13:56:53;;;;;;;1.27;0.80;;;;;;;;;;4912314;29;20214;-66
2022/04/17 13:59:19;;;;;;;0.50;0.50;;;;;;;;;;4912357;29;20235;-66
2022/04/17 14:01:46;;;;;;;1.70;0.80;;;;;;;;;;4912733;29;20659;-66
2022/04/17 14:04:13;;;;;;;0.80;0.57;;;;;;;;;;4912648;29;20206;-66
2022/04/17 14:06:40;;;;;;;1.00;0.57;;;;;;;;;;4912308;29;20302;-66
2022/04/17 14:09:07;;;;;;;1.53;0.67;;;;;;;;;;4912568;29;20239;-66
2022/04/17 14:11:33;;;;;;;1.17;0.70;;;;;;;;;;4912433;29;20694;-66
2022/04/17 14:14:00;;;;;;;1.00;0.60;;;;;;;;;;4895987;29;20195;-66
2022/04/17 14:16:27;;;;;;;1.40;0.60;;;;;;;;;;4895573;29;20175;-66
2022/04/17 14:18:53;;;;;;;0.93;0.70;;;;;;;;;;4912330;29;20781;-66
2022/04/17 14:21:20;;;;;;;1.60;0.80;;;;;;;;;;4911379;29;20206;-66
2022/04/17 14:23:47;;;;;;;8.00;1.10;;;;;;;;;;4912252;29;20251;-67
2022/04/17 14:26:14;;;;;;;1.63;0.60;;;;;;;;;;4912701;29;20548;-66
2022/04/17 14:28:41;;;;;;;1.30;0.60;;;;;;;;;;4912179;29;20718;-66
2022/04/17 14:31:08;;;;;;;1.40;0.57;;;;;;;;;;4912268;29;20202;-66
2022/04/17 14:33:35;;;;;;;0.80;0.60;;;;;;;;;;4911830;29;20246;-66
2022/04/17 14:36:01;;;;;;;1.30;0.80;;;;;;;;;;4910947;29;20209;-66
2022/04/17 14:38:28;;;;;;;1.03;0.60;;;;;;;;;;4911821;29;20743;-67
2022/04/17 14:40:55;;;;;;;1.27;0.87;;;;;;;;;;4912092;29;20203;-66
2022/04/17 14:43:21;;;;;;;1.47;0.70;;;;;;;;;;4911824;29;20247;-66
2022/04/17 14:45:48;;;;;;;0.80;0.50;;;;;;;;;;4912189;29;20202;-66
2022/04/17 14:48:15;;;;;;;1.07;0.70;;;;;;;;;;4912093;29;20203;-67
2022/04/17 14:50:42;;;;;;;1.20;0.70;;;;;;;;;;4911766;29;20180;-66
2022/04/17 14:53:10;;;;;;;1.53;0.70;;;;;;;;;;4912324;29;20555;-66
2022/04/17 14:55:37;;;;;;;1.83;0.73;;;;;;;;;;4895227;29;20462;-67
2022/04/17 14:58:04;;;;;;;1.57;0.80;;;;;;;;;;4911661;29;20215;-66
2022/04/17 15:00:31;;;;;;;1.53;0.70;;;;;;;;;;4911054;29;20230;-66
2022/04/17 15:02:59;;;;;;;1.73;0.60;;;;;;;;;;4911740;29;20184;-66
2022/04/17 15:05:26;;;;;;;1.33;0.70;;;;;;;;;;4912380;29;20196;-66
2022/04/17 15:07:52;;;;;;;3.00;0.77;;;;;;;;;;4911782;29;20196;-66
2022/04/17 15:10:37;;;;;;;1.10;0.60;;;;;;;;;;4912060;29;20172;-66
2022/04/17 15:13:04;;;;;;;2.60;1.20;;;;;;;;;;4911523;29;20196;-66